sensor_id;sensor_type;location;lat;lon;timestamp;P1;durP1;ratioP1;P2;durP2;ratioP2
4210;SDS011;2119;48.828;12.396;2022-09-01T00:02:46;12.30;;;11.20;;
4210;SDS011;2119;48.828;12.396;2022-09-01T00:07:46;11.85;;;10.80;;
4210;SDS011;2119;48.828;12.396;2022-09-01T00:12:48;13.10;;;11.80;;
4210;SDS011;2119;48.828;12.396;2022-09-01T00:17:48;11.60;;;10.60;;
4210;SDS011;2119;48.828;12.396;2022-09-01T00:22:48;13.10;;;11.83;;
4210;SDS011;2119;48.828;12.396;2022-09-01T00:27:49;13.63;;;11.77;;
4210;SDS011;2119;48.828;12.396;2022-09-01T00:32:49;12.53;;;11.40;;
4210;SDS011;2119;48.828;12.396;2022-09-01T00:37:50;13.50;;;12.10;;
4210;SDS011;2119;48.828;12.396;2022-09-01T00:42:50;13.50;;;12.10;;
4210;SDS011;2119;48.828;12.396;2022-09-01T00:47:50;13.50;;;12.20;;
4210;SDS011;2119;48.828;12.396;2022-09-01T00:52:52;12.73;;;11.53;;
4210;SDS011;2119;48.828;12.396;2022-09-01T00:57:54;13.00;;;11.87;;
4210;SDS011;2119;48.828;12.396;2022-09-01T01:02:54;12.43;;;11.23;;
4210;SDS011;2119;48.828;12.396;2022-09-01T01:07:55;14.70;;;13.30;;
4210;SDS011;2119;48.828;12.396;2022-09-01T01:12:55;13.63;;;12.40;;
4210;SDS011;2119;48.828;12.396;2022-09-01T01:17:56;14.87;;;13.47;;
4210;SDS011;2119;48.828;12.396;2022-09-01T01:23:05;13.35;;;12.05;;
4210;SDS011;2119;48.828;12.396;2022-09-01T01:28:16;13.80;;;12.60;;
4210;SDS011;2119;48.828;12.396;2022-09-01T01:33:18;12.43;;;11.33;;
4210;SDS011;2119;48.828;12.396;2022-09-01T01:38:19;13.80;;;12.53;;
4210;SDS011;2119;48.828;12.396;2022-09-01T01:43:22;14.73;;;13.20;;
4210;SDS011;2119;48.828;12.396;2022-09-01T01:48:22;14.17;;;12.87;;
4210;SDS011;2119;48.828;12.396;2022-09-01T01:53:23;14.10;;;12.70;;
4210;SDS011;2119;48.828;12.396;2022-09-01T01:58:23;14.70;;;12.60;;
4210;SDS011;2119;48.828;12.396;2022-09-01T02:03:26;13.27;;;12.07;;
4210;SDS011;2119;48.828;12.396;2022-09-01T02:08:27;15.17;;;13.67;;
4210;SDS011;2119;48.828;12.396;2022-09-01T02:13:28;18.60;;;13.77;;
4210;SDS011;2119;48.828;12.396;2022-09-01T02:18:32;16.47;;;14.60;;
4210;SDS011;2119;48.828;12.396;2022-09-01T02:23:34;16.20;;;12.43;;
4210;SDS011;2119;48.828;12.396;2022-09-01T02:28:36;17.80;;;13.63;;
4210;SDS011;2119;48.828;12.396;2022-09-01T02:33:39;13.40;;;12.07;;
4210;SDS011;2119;48.828;12.396;2022-09-01T02:38:40;14.57;;;13.10;;
4210;SDS011;2119;48.828;12.396;2022-09-01T02:43:44;15.07;;;13.57;;
4210;SDS011;2119;48.828;12.396;2022-09-01T02:48:45;13.90;;;12.70;;
4210;SDS011;2119;48.828;12.396;2022-09-01T02:53:47;17.37;;;15.53;;
4210;SDS011;2119;48.828;12.396;2022-09-01T02:58:50;15.30;;;13.80;;
4210;SDS011;2119;48.828;12.396;2022-09-01T03:03:51;15.18;;;13.65;;
4210;SDS011;2119;48.828;12.396;2022-09-01T03:08:52;15.23;;;13.17;;
4210;SDS011;2119;48.828;12.396;2022-09-01T03:13:53;16.03;;;14.47;;
4210;SDS011;2119;48.828;12.396;2022-09-01T03:18:53;14.57;;;13.07;;
4210;SDS011;2119;48.828;12.396;2022-09-01T03:23:54;13.13;;;11.83;;
4210;SDS011;2119;48.828;12.396;2022-09-01T03:28:57;15.73;;;13.27;;
4210;SDS011;2119;48.828;12.396;2022-09-01T03:33:58;15.03;;;13.37;;
4210;SDS011;2119;48.828;12.396;2022-09-01T03:38:59;14.80;;;12.90;;
4210;SDS011;2119;48.828;12.396;2022-09-01T03:44:00;18.73;;;13.40;;
4210;SDS011;2119;48.828;12.396;2022-09-01T03:49:06;15.63;;;13.93;;
4210;SDS011;2119;48.828;12.396;2022-09-01T03:54:12;15.03;;;13.53;;
4210;SDS011;2119;48.828;12.396;2022-09-01T03:59:12;16.77;;;14.43;;
4210;SDS011;2119;48.828;12.396;2022-09-01T04:04:15;19.40;;;14.40;;
4210;SDS011;2119;48.828;12.396;2022-09-01T04:09:16;15.30;;;13.70;;
4210;SDS011;2119;48.828;12.396;2022-09-01T04:14:16;16.10;;;14.40;;
4210;SDS011;2119;48.828;12.396;2022-09-01T04:19:17;22.33;;;15.40;;
4210;SDS011;2119;48.828;12.396;2022-09-01T04:24:24;19.57;;;14.10;;
4210;SDS011;2119;48.828;12.396;2022-09-01T04:29:27;17.70;;;14.87;;
4210;SDS011;2119;48.828;12.396;2022-09-01T04:34:28;16.30;;;14.77;;
4210;SDS011;2119;48.828;12.396;2022-09-01T04:39:29;15.90;;;14.27;;
4210;SDS011;2119;48.828;12.396;2022-09-01T04:44:29;20.23;;;15.60;;
4210;SDS011;2119;48.828;12.396;2022-09-01T04:49:30;19.00;;;17.03;;
4210;SDS011;2119;48.828;12.396;2022-09-01T04:54:32;17.93;;;15.33;;
4210;SDS011;2119;48.828;12.396;2022-09-01T04:59:35;18.77;;;16.87;;
4210;SDS011;2119;48.828;12.396;2022-09-01T05:04:36;18.07;;;16.27;;
4210;SDS011;2119;48.828;12.396;2022-09-01T05:09:37;18.67;;;16.73;;
4210;SDS011;2119;48.828;12.396;2022-09-01T05:14:38;23.17;;;18.37;;
4210;SDS011;2119;48.828;12.396;2022-09-01T05:19:42;23.73;;;19.63;;
4210;SDS011;2119;48.828;12.396;2022-09-01T05:24:42;19.77;;;17.67;;
4210;SDS011;2119;48.828;12.396;2022-09-01T05:29:43;22.60;;;18.40;;
4210;SDS011;2119;48.828;12.396;2022-09-01T05:34:45;21.50;;;18.60;;
4210;SDS011;2119;48.828;12.396;2022-09-01T05:39:46;21.03;;;18.87;;
4210;SDS011;2119;48.828;12.396;2022-09-01T05:44:46;20.23;;;18.10;;
4210;SDS011;2119;48.828;12.396;2022-09-01T05:49:47;18.50;;;16.77;;
4210;SDS011;2119;48.828;12.396;2022-09-01T05:54:48;18.17;;;16.30;;
4210;SDS011;2119;48.828;12.396;2022-09-01T05:59:48;17.07;;;15.43;;
4210;SDS011;2119;48.828;12.396;2022-09-01T06:04:52;15.90;;;14.40;;
4210;SDS011;2119;48.828;12.396;2022-09-01T06:09:55;13.93;;;12.57;;
4210;SDS011;2119;48.828;12.396;2022-09-01T06:14:56;13.45;;;12.25;;
4210;SDS011;2119;48.828;12.396;2022-09-01T06:19:56;12.80;;;11.73;;
4210;SDS011;2119;48.828;12.396;2022-09-01T06:24:57;12.43;;;11.13;;
4210;SDS011;2119;48.828;12.396;2022-09-01T06:29:58;13.00;;;11.90;;
4210;SDS011;2119;48.828;12.396;2022-09-01T06:34:58;12.35;;;11.23;;
4210;SDS011;2119;48.828;12.396;2022-09-01T06:39:59;13.17;;;11.87;;
4210;SDS011;2119;48.828;12.396;2022-09-01T06:45:00;11.93;;;10.80;;
4210;SDS011;2119;48.828;12.396;2022-09-01T06:50:00;13.50;;;12.20;;
4210;SDS011;2119;48.828;12.396;2022-09-01T06:55:00;12.70;;;11.60;;
4210;SDS011;2119;48.828;12.396;2022-09-01T07:00:01;12.07;;;10.97;;
4210;SDS011;2119;48.828;12.396;2022-09-01T07:05:10;11.53;;;10.53;;
4210;SDS011;2119;48.828;12.396;2022-09-01T07:10:10;12.07;;;11.07;;
4210;SDS011;2119;48.828;12.396;2022-09-01T07:15:14;11.10;;;10.10;;
4210;SDS011;2119;48.828;12.396;2022-09-01T07:20:17;11.37;;;10.47;;
4210;SDS011;2119;48.828;12.396;2022-09-01T07:25:20;8.27;;;7.67;;
4210;SDS011;2119;48.828;12.396;2022-09-01T07:30:20;10.03;;;9.20;;
4210;SDS011;2119;48.828;12.396;2022-09-01T07:35:21;8.97;;;8.30;;
4210;SDS011;2119;48.828;12.396;2022-09-01T07:40:21;8.27;;;7.70;;
4210;SDS011;2119;48.828;12.396;2022-09-01T07:45:22;9.13;;;8.37;;
4210;SDS011;2119;48.828;12.396;2022-09-01T07:50:24;7.60;;;7.00;;
4210;SDS011;2119;48.828;12.396;2022-09-01T07:55:25;8.60;;;7.80;;
4210;SDS011;2119;48.828;12.396;2022-09-01T08:00:26;7.93;;;6.93;;
4210;SDS011;2119;48.828;12.396;2022-09-01T08:05:27;7.43;;;6.93;;
4210;SDS011;2119;48.828;12.396;2022-09-01T08:10:28;6.27;;;5.87;;
4210;SDS011;2119;48.828;12.396;2022-09-01T08:15:28;8.20;;;7.60;;
4210;SDS011;2119;48.828;12.396;2022-09-01T08:20:28;7.77;;;7.03;;
4210;SDS011;2119;48.828;12.396;2022-09-01T08:25:29;7.80;;;7.30;;
4210;SDS011;2119;48.828;12.396;2022-09-01T08:30:30;7.30;;;6.80;;
4210;SDS011;2119;48.828;12.396;2022-09-01T08:35:33;8.23;;;7.53;;
4210;SDS011;2119;48.828;12.396;2022-09-01T08:40:33;9.07;;;8.27;;
4210;SDS011;2119;48.828;12.396;2022-09-01T08:45:38;6.60;;;6.20;;
4210;SDS011;2119;48.828;12.396;2022-09-01T08:50:41;6.87;;;6.47;;
4210;SDS011;2119;48.828;12.396;2022-09-01T08:55:43;5.90;;;5.60;;
4210;SDS011;2119;48.828;12.396;2022-09-01T09:00:45;6.17;;;5.77;;
4210;SDS011;2119;48.828;12.396;2022-09-01T09:06:02;5.60;;;5.10;;
4210;SDS011;2119;48.828;12.396;2022-09-01T09:11:17;5.40;;;4.93;;
4210;SDS011;2119;48.828;12.396;2022-09-01T09:16:23;4.87;;;4.47;;
4210;SDS011;2119;48.828;12.396;2022-09-01T09:21:29;4.17;;;3.97;;
4210;SDS011;2119;48.828;12.396;2022-09-01T09:26:31;3.73;;;3.53;;
4210;SDS011;2119;48.828;12.396;2022-09-01T09:31:33;4.13;;;3.92;;
4210;SDS011;2119;48.828;12.396;2022-09-01T09:36:34;4.60;;;4.30;;
4210;SDS011;2119;48.828;12.396;2022-09-01T09:41:35;4.90;;;4.20;;
4210;SDS011;2119;48.828;12.396;2022-09-01T09:46:37;4.03;;;3.83;;
4210;SDS011;2119;48.828;12.396;2022-09-01T09:51:38;4.80;;;4.40;;
4210;SDS011;2119;48.828;12.396;2022-09-01T09:56:40;4.90;;;4.60;;
4210;SDS011;2119;48.828;12.396;2022-09-01T10:01:40;5.33;;;4.97;;
4210;SDS011;2119;48.828;12.396;2022-09-01T10:06:42;5.13;;;4.57;;
4210;SDS011;2119;48.828;12.396;2022-09-01T10:11:47;4.40;;;4.10;;
4210;SDS011;2119;48.828;12.396;2022-09-01T10:16:50;3.80;;;3.60;;
4210;SDS011;2119;48.828;12.396;2022-09-01T10:21:51;4.00;;;3.73;;
4210;SDS011;2119;48.828;12.396;2022-09-01T10:26:52;4.97;;;3.50;;
4210;SDS011;2119;48.828;12.396;2022-09-01T10:31:53;8.20;;;3.60;;
4210;SDS011;2119;48.828;12.396;2022-09-01T10:36:54;3.60;;;3.40;;
4210;SDS011;2119;48.828;12.396;2022-09-01T10:41:55;3.37;;;3.17;;
4210;SDS011;2119;48.828;12.396;2022-09-01T10:46:57;3.27;;;3.07;;
4210;SDS011;2119;48.828;12.396;2022-09-01T10:51:57;3.43;;;3.23;;
4210;SDS011;2119;48.828;12.396;2022-09-01T10:56:58;4.37;;;3.50;;
4210;SDS011;2119;48.828;12.396;2022-09-01T11:02:13;3.50;;;3.30;;
4210;SDS011;2119;48.828;12.396;2022-09-01T11:17:38;2.53;;;2.33;;
4210;SDS011;2119;48.828;12.396;2022-09-01T11:27:56;4.07;;;2.90;;
4210;SDS011;2119;48.828;12.396;2022-09-01T11:32:58;3.00;;;2.80;;
4210;SDS011;2119;48.828;12.396;2022-09-01T11:38:03;2.83;;;2.63;;
4210;SDS011;2119;48.828;12.396;2022-09-01T11:43:07;4.03;;;2.70;;
4210;SDS011;2119;48.828;12.396;2022-09-01T11:48:08;2.90;;;2.80;;
4210;SDS011;2119;48.828;12.396;2022-09-01T11:53:14;2.90;;;2.70;;
4210;SDS011;2119;48.828;12.396;2022-09-01T12:03:28;2.30;;;2.20;;
4210;SDS011;2119;48.828;12.396;2022-09-01T12:08:29;2.20;;;2.10;;
4210;SDS011;2119;48.828;12.396;2022-09-01T12:13:30;3.00;;;2.80;;
4210;SDS011;2119;48.828;12.396;2022-09-01T12:18:36;3.03;;;2.83;;
4210;SDS011;2119;48.828;12.396;2022-09-01T12:23:39;2.80;;;2.60;;
4210;SDS011;2119;48.828;12.396;2022-09-01T12:28:42;2.53;;;2.43;;
4210;SDS011;2119;48.828;12.396;2022-09-01T12:33:43;2.80;;;2.60;;
4210;SDS011;2119;48.828;12.396;2022-09-01T12:38:43;2.70;;;2.60;;
4210;SDS011;2119;48.828;12.396;2022-09-01T12:43:43;2.87;;;2.67;;
4210;SDS011;2119;48.828;12.396;2022-09-01T12:48:44;2.53;;;2.33;;
4210;SDS011;2119;48.828;12.396;2022-09-01T12:53:57;6.13;;;2.50;;
4210;SDS011;2119;48.828;12.396;2022-09-01T12:59:06;2.40;;;2.30;;
4210;SDS011;2119;48.828;12.396;2022-09-01T13:09:27;2.70;;;2.50;;
4210;SDS011;2119;48.828;12.396;2022-09-01T13:14:27;2.30;;;2.20;;
4210;SDS011;2119;48.828;12.396;2022-09-01T13:19:42;2.10;;;2.00;;
4210;SDS011;2119;48.828;12.396;2022-09-01T13:25:03;2.77;;;2.57;;
4210;SDS011;2119;48.828;12.396;2022-09-01T13:30:04;3.37;;;2.43;;
4210;SDS011;2119;48.828;12.396;2022-09-01T13:35:06;3.00;;;2.80;;
4210;SDS011;2119;48.828;12.396;2022-09-01T13:40:07;2.90;;;2.70;;
4210;SDS011;2119;48.828;12.396;2022-09-01T13:45:15;4.10;;;2.50;;
4210;SDS011;2119;48.828;12.396;2022-09-01T13:50:17;2.77;;;2.37;;
4210;SDS011;2119;48.828;12.396;2022-09-01T13:55:19;2.63;;;2.53;;
4210;SDS011;2119;48.828;12.396;2022-09-01T14:00:22;2.43;;;2.33;;
4210;SDS011;2119;48.828;12.396;2022-09-01T14:05:33;2.40;;;2.20;;
4210;SDS011;2119;48.828;12.396;2022-09-01T14:10:36;2.60;;;2.50;;
4210;SDS011;2119;48.828;12.396;2022-09-01T14:15:37;2.70;;;2.50;;
4210;SDS011;2119;48.828;12.396;2022-09-01T14:20:37;2.70;;;2.50;;
4210;SDS011;2119;48.828;12.396;2022-09-01T14:25:47;2.40;;;2.30;;
4210;SDS011;2119;48.828;12.396;2022-09-01T14:30:48;2.90;;;2.70;;
4210;SDS011;2119;48.828;12.396;2022-09-01T14:35:49;3.70;;;3.30;;
4210;SDS011;2119;48.828;12.396;2022-09-01T14:40:49;3.20;;;3.00;;
4210;SDS011;2119;48.828;12.396;2022-09-01T14:46:00;3.07;;;2.80;;
4210;SDS011;2119;48.828;12.396;2022-09-01T14:51:01;3.10;;;2.83;;
4210;SDS011;2119;48.828;12.396;2022-09-01T14:56:01;3.10;;;2.90;;
4210;SDS011;2119;48.828;12.396;2022-09-01T15:01:02;3.30;;;3.10;;
4210;SDS011;2119;48.828;12.396;2022-09-01T15:06:02;3.10;;;2.90;;
4210;SDS011;2119;48.828;12.396;2022-09-01T15:11:06;3.40;;;3.20;;
4210;SDS011;2119;48.828;12.396;2022-09-01T15:16:13;4.20;;;2.93;;
4210;SDS011;2119;48.828;12.396;2022-09-01T15:21:20;4.33;;;3.00;;
4210;SDS011;2119;48.828;12.396;2022-09-01T15:26:20;3.60;;;3.40;;
4210;SDS011;2119;48.828;12.396;2022-09-01T15:31:21;3.00;;;2.70;;
4210;SDS011;2119;48.828;12.396;2022-09-01T15:36:24;3.10;;;2.90;;
4210;SDS011;2119;48.828;12.396;2022-09-01T15:41:26;2.77;;;2.57;;
4210;SDS011;2119;48.828;12.396;2022-09-01T15:46:26;6.70;;;2.90;;
4210;SDS011;2119;48.828;12.396;2022-09-01T15:51:35;3.47;;;3.27;;
4210;SDS011;2119;48.828;12.396;2022-09-01T15:56:36;3.10;;;2.77;;
4210;SDS011;2119;48.828;12.396;2022-09-01T16:01:37;3.50;;;3.20;;
4210;SDS011;2119;48.828;12.396;2022-09-01T16:06:38;3.30;;;3.10;;
4210;SDS011;2119;48.828;12.396;2022-09-01T16:11:39;3.00;;;2.70;;
4210;SDS011;2119;48.828;12.396;2022-09-01T16:16:58;3.00;;;2.90;;
4210;SDS011;2119;48.828;12.396;2022-09-01T16:27:15;3.47;;;3.03;;
4210;SDS011;2119;48.828;12.396;2022-09-01T16:32:16;3.37;;;3.07;;
4210;SDS011;2119;48.828;12.396;2022-09-01T16:58:16;3.00;;;2.80;;
4210;SDS011;2119;48.828;12.396;2022-09-01T17:03:18;4.37;;;3.73;;
4210;SDS011;2119;48.828;12.396;2022-09-01T17:08:23;3.37;;;3.17;;
4210;SDS011;2119;48.828;12.396;2022-09-01T17:13:28;3.13;;;2.87;;
4210;SDS011;2119;48.828;12.396;2022-09-01T17:18:42;2.47;;;2.37;;
4210;SDS011;2119;48.828;12.396;2022-09-01T17:23:46;2.20;;;2.10;;
4210;SDS011;2119;48.828;12.396;2022-09-01T17:29:03;1.80;;;1.70;;
4210;SDS011;2119;48.828;12.396;2022-09-01T17:44:28;6.40;;;1.83;;
4210;SDS011;2119;48.828;12.396;2022-09-01T17:49:36;1.90;;;1.53;;
4210;SDS011;2119;48.828;12.396;2022-09-01T17:54:39;3.97;;;3.60;;
4210;SDS011;2119;48.828;12.396;2022-09-01T18:00:02;2.23;;;2.03;;
4210;SDS011;2119;48.828;12.396;2022-09-01T18:05:08;1.73;;;1.63;;
4210;SDS011;2119;48.828;12.396;2022-09-01T18:10:11;2.20;;;1.77;;
4210;SDS011;2119;48.828;12.396;2022-09-01T18:15:13;2.03;;;1.93;;
4210;SDS011;2119;48.828;12.396;2022-09-01T18:20:18;2.10;;;1.97;;
4210;SDS011;2119;48.828;12.396;2022-09-01T18:25:21;2.40;;;1.93;;
4210;SDS011;2119;48.828;12.396;2022-09-01T18:30:22;2.10;;;1.90;;
4210;SDS011;2119;48.828;12.396;2022-09-01T18:35:30;1.90;;;1.80;;
4210;SDS011;2119;48.828;12.396;2022-09-01T18:45:39;2.00;;;1.90;;
4210;SDS011;2119;48.828;12.396;2022-09-01T18:50:46;2.20;;;2.10;;
4210;SDS011;2119;48.828;12.396;2022-09-01T18:55:51;2.27;;;2.07;;
4210;SDS011;2119;48.828;12.396;2022-09-01T19:01:04;4.70;;;2.20;;
4210;SDS011;2119;48.828;12.396;2022-09-01T19:16:47;2.50;;;2.40;;
4210;SDS011;2119;48.828;12.396;2022-09-01T19:21:53;2.77;;;2.57;;
4210;SDS011;2119;48.828;12.396;2022-09-01T19:27:14;2.30;;;2.17;;
4210;SDS011;2119;48.828;12.396;2022-09-01T19:32:15;3.13;;;2.87;;
4210;SDS011;2119;48.828;12.396;2022-09-01T19:37:18;2.50;;;2.40;;
4210;SDS011;2119;48.828;12.396;2022-09-01T19:58:08;2.30;;;2.10;;
4210;SDS011;2119;48.828;12.396;2022-09-01T20:03:10;3.50;;;2.47;;
4210;SDS011;2119;48.828;12.396;2022-09-01T20:08:15;2.50;;;2.23;;
4210;SDS011;2119;48.828;12.396;2022-09-01T20:18:31;2.77;;;2.27;;
4210;SDS011;2119;48.828;12.396;2022-09-01T20:23:53;2.97;;;2.13;;
4210;SDS011;2119;48.828;12.396;2022-09-01T20:44:54;2.77;;;2.57;;
4210;SDS011;2119;48.828;12.396;2022-09-01T20:49:56;6.50;;;2.60;;
4210;SDS011;2119;48.828;12.396;2022-09-01T21:10:26;4.37;;;2.90;;
4210;SDS011;2119;48.828;12.396;2022-09-01T21:15:30;3.50;;;2.50;;
4210;SDS011;2119;48.828;12.396;2022-09-01T21:25:41;3.27;;;3.00;;
4210;SDS011;2119;48.828;12.396;2022-09-01T21:30:43;3.13;;;2.93;;
4210;SDS011;2119;48.828;12.396;2022-09-01T21:35:43;4.30;;;3.23;;
4210;SDS011;2119;48.828;12.396;2022-09-01T21:40:43;3.70;;;3.07;;
4210;SDS011;2119;48.828;12.396;2022-09-01T21:45:44;3.43;;;3.13;;
4210;SDS011;2119;48.828;12.396;2022-09-01T21:50:44;3.10;;;2.90;;
4210;SDS011;2119;48.828;12.396;2022-09-01T21:55:44;3.70;;;3.40;;
4210;SDS011;2119;48.828;12.396;2022-09-01T22:00:45;3.20;;;3.00;;
4210;SDS011;2119;48.828;12.396;2022-09-01T22:05:46;3.43;;;3.13;;
4210;SDS011;2119;48.828;12.396;2022-09-01T22:10:47;3.40;;;3.20;;
4210;SDS011;2119;48.828;12.396;2022-09-01T22:15:49;3.30;;;3.00;;
4210;SDS011;2119;48.828;12.396;2022-09-01T22:20:49;4.03;;;3.83;;
4210;SDS011;2119;48.828;12.396;2022-09-01T22:25:49;3.70;;;3.50;;
4210;SDS011;2119;48.828;12.396;2022-09-01T22:30:50;3.88;;;3.30;;
4210;SDS011;2119;48.828;12.396;2022-09-01T22:35:51;5.47;;;3.70;;
4210;SDS011;2119;48.828;12.396;2022-09-01T22:40:53;3.70;;;3.50;;
4210;SDS011;2119;48.828;12.396;2022-09-01T22:45:54;3.93;;;3.73;;
4210;SDS011;2119;48.828;12.396;2022-09-01T22:50:54;3.70;;;3.50;;
4210;SDS011;2119;48.828;12.396;2022-09-01T22:55:55;3.92;;;3.72;;
4210;SDS011;2119;48.828;12.396;2022-09-01T23:00:55;4.20;;;3.35;;
4210;SDS011;2119;48.828;12.396;2022-09-01T23:06:03;4.47;;;4.10;;
4210;SDS011;2119;48.828;12.396;2022-09-01T23:11:04;4.20;;;3.90;;
4210;SDS011;2119;48.828;12.396;2022-09-01T23:16:05;3.90;;;3.70;;
4210;SDS011;2119;48.828;12.396;2022-09-01T23:21:06;4.70;;;4.40;;
4210;SDS011;2119;48.828;12.396;2022-09-01T23:26:07;4.20;;;3.90;;
4210;SDS011;2119;48.828;12.396;2022-09-01T23:31:08;3.83;;;3.63;;
4210;SDS011;2119;48.828;12.396;2022-09-01T23:36:10;4.17;;;3.97;;
4210;SDS011;2119;48.828;12.396;2022-09-01T23:41:13;3.30;;;3.10;;
4210;SDS011;2119;48.828;12.396;2022-09-01T23:46:18;3.90;;;3.50;;
4210;SDS011;2119;48.828;12.396;2022-09-01T23:51:18;3.87;;;3.67;;
4210;SDS011;2119;48.828;12.396;2022-09-01T23:56:20;4.13;;;3.73;;
